Time,TemperatureF,DewpointF,PressureIn,WindDirection,WindDirectionDegrees,WindSpeedMPH,WindSpeedGustMPH,Humidity,HourlyPrecipIn,Conditions,Clouds,dailyrainin,SolarRadiationWatts/m^2,SoftwareType,DateUTC
2013-07-23 00:01:00,57.0,54.0,-100.00,NNE,32,7.0,16.0,90,0.00,,,0.00,0.000000,,2013-07-23 07:01:00,
2013-07-23 00:33:00,57.0,54.0,-100.00,NNE,32,7.0,16.0,90,0.00,,,0.00,0.000000,,2013-07-23 07:33:00,
2013-07-23 00:42:00,57.0,54.0,-100.00,NNE,32,7.0,16.0,90,0.00,,,0.00,0.000000,,2013-07-23 07:42:00,
2013-07-23 00:52:00,57.0,54.0,-100.00,NNE,32,7.0,16.0,90,0.00,,,0.00,0.000000,,2013-07-23 07:52:00,
2013-07-23 01:01:00,57.0,55.0,-100.00,North,6,6.0,17.0,92,0.00,,,0.00,0.000000,,2013-07-23 08:01:00,
2013-07-23 01:33:00,57.0,55.0,-100.00,North,6,6.0,17.0,92,0.00,,,0.00,0.000000,,2013-07-23 08:33:00,
2013-07-23 01:43:00,57.0,55.0,-100.00,North,6,6.0,17.0,92,0.00,,,0.00,0.000000,,2013-07-23 08:43:00,
2013-07-23 01:52:00,57.0,55.0,-100.00,North,6,6.0,17.0,92,0.00,,,0.00,0.000000,,2013-07-23 08:52:00,
2013-07-23 02:01:00,57.0,53.0,-100.00,NE,37,6.0,12.0,87,0.00,,,0.00,0.000000,,2013-07-23 09:01:00,
2013-07-23 02:33:00,57.0,53.0,-100.00,NE,37,6.0,12.0,87,0.00,,,0.00,0.000000,,2013-07-23 09:33:00,
2013-07-23 02:42:00,57.0,53.0,-100.00,NE,37,6.0,12.0,87,0.00,,,0.00,0.000000,,2013-07-23 09:42:00,
2013-07-23 02:53:00,57.0,53.0,-100.00,NE,37,6.0,12.0,87,0.00,,,0.00,0.000000,,2013-07-23 09:53:00,
2013-07-23 03:01:00,58.0,55.0,-100.00,NE,37,7.0,14.0,90,0.00,,,0.00,0.000000,,2013-07-23 10:01:00,
2013-07-23 03:22:00,58.0,55.0,-100.00,NE,37,7.0,14.0,90,0.00,,,0.00,0.000000,,2013-07-23 10:22:00,
2013-07-23 03:32:00,58.0,55.0,-100.00,NE,37,7.0,14.0,90,0.00,,,0.00,0.000000,,2013-07-23 10:32:00,
2013-07-23 03:44:00,58.0,55.0,-100.00,NE,37,7.0,14.0,90,0.00,,,0.00,0.000000,,2013-07-23 10:44:00,
2013-07-23 03:52:00,58.0,55.0,-100.00,NE,37,7.0,14.0,90,0.00,,,0.00,0.000000,,2013-07-23 10:52:00,
2013-07-23 04:01:00,57.0,55.0,-100.00,NE,39,7.0,17.0,93,0.00,,,0.00,0.000000,,2013-07-23 11:01:00,
2013-07-23 04:32:00,57.0,55.0,-100.00,NE,39,7.0,17.0,93,0.00,,,0.00,0.000000,,2013-07-23 11:32:00,
2013-07-23 04:43:00,57.0,55.0,-100.00,NE,39,7.0,17.0,93,0.00,,,0.00,0.000000,,2013-07-23 11:43:00,
2013-07-23 04:52:00,57.0,55.0,-100.00,NE,39,7.0,17.0,93,0.00,,,0.00,0.000000,,2013-07-23 11:52:00,
2013-07-23 05:01:00,56.0,55.0,-100.00,NE,44,7.0,15.0,98,0.00,,,0.00,0.000000,,2013-07-23 12:01:00,
2013-07-23 05:33:00,56.0,55.0,-100.00,NE,44,7.0,15.0,98,0.00,,,0.00,0.000000,,2013-07-23 12:33:00,
2013-07-23 05:43:00,56.0,55.0,-100.00,NE,44,7.0,15.0,98,0.00,,,0.00,0.000000,,2013-07-23 12:43:00,
2013-07-23 06:01:00,54.0,54.0,-100.00,NE,40,7.0,16.0,99,0.00,,,-99.99,0.000000,,2013-07-23 13:01:00,
2013-07-23 06:32:00,54.0,54.0,-100.00,NE,40,7.0,16.0,99,0.00,,,-99.99,0.000000,,2013-07-23 13:32:00,
2013-07-23 06:43:00,54.0,54.0,-100.00,NE,40,7.0,16.0,99,0.00,,,-99.99,0.000000,,2013-07-23 13:43:00,
2013-07-23 06:52:00,54.0,54.0,-100.00,NE,40,7.0,16.0,99,0.00,,,-99.99,0.000000,,2013-07-23 13:52:00,
2013-07-23 07:01:00,55.0,55.0,-100.00,NE,44,7.0,14.0,100,0.00,,,0.00,4.000000,,2013-07-23 14:01:00,
2013-07-23 07:33:00,55.0,55.0,-100.00,NE,44,7.0,14.0,100,0.00,,,0.00,4.000000,,2013-07-23 14:33:00,
2013-07-23 07:44:00,55.0,55.0,-100.00,NE,44,7.0,14.0,100,0.00,,,0.00,4.000000,,2013-07-23 14:44:00,
2013-07-23 07:53:00,55.0,55.0,-100.00,NE,44,7.0,14.0,100,0.00,,,0.00,4.000000,,2013-07-23 14:53:00,
2013-07-23 08:01:00,58.0,58.0,-100.00,South,187,7.0,17.0,99,0.00,,,0.00,96.000000,,2013-07-23 15:01:00,
2013-07-23 08:32:00,58.0,58.0,-100.00,South,187,7.0,17.0,99,0.00,,,0.00,96.000000,,2013-07-23 15:32:00,
2013-07-23 08:43:00,58.0,58.0,-100.00,South,187,7.0,17.0,99,0.00,,,0.00,96.000000,,2013-07-23 15:43:00,
2013-07-23 08:52:00,58.0,58.0,-100.00,South,187,7.0,17.0,99,0.00,,,0.00,96.000000,,2013-07-23 15:52:00,
2013-07-23 09:01:00,60.0,55.0,-100.00,ENE,59,7.0,20.0,85,0.00,,,0.00,271.000000,,2013-07-23 16:01:00,
2013-07-23 09:33:00,60.0,55.0,-100.00,ENE,59,7.0,20.0,85,0.00,,,0.00,271.000000,,2013-07-23 16:33:00,
2013-07-23 09:43:00,60.0,55.0,-100.00,ENE,59,7.0,20.0,85,0.00,,,0.00,271.000000,,2013-07-23 16:43:00,
2013-07-23 09:52:00,60.0,55.0,-100.00,ENE,59,7.0,20.0,85,0.00,,,0.00,271.000000,,2013-07-23 16:52:00,
2013-07-23 10:01:00,65.0,57.0,-100.00,NE,39,8.0,15.0,76,0.00,,,0.00,465.000000,,2013-07-23 17:01:00,
2013-07-23 10:32:00,65.0,57.0,-100.00,NE,39,8.0,15.0,76,0.00,,,0.00,465.000000,,2013-07-23 17:32:00,
2013-07-23 10:42:00,65.0,57.0,-100.00,NE,39,8.0,15.0,76,0.00,,,0.00,465.000000,,2013-07-23 17:42:00,
2013-07-23 10:55:00,65.0,57.0,-100.00,NE,39,8.0,15.0,76,0.00,,,0.00,465.000000,,2013-07-23 17:55:00,
2013-07-23 11:01:00,66.0,54.0,-100.00,NE,48,8.0,17.0,66,0.00,,,0.00,657.000000,,2013-07-23 18:01:00,
2013-07-23 11:35:00,66.0,54.0,-100.00,NE,48,8.0,17.0,66,0.00,,,0.00,657.000000,,2013-07-23 18:35:00,
2013-07-23 11:48:00,66.0,54.0,-100.00,NE,48,8.0,17.0,66,0.00,,,0.00,657.000000,,2013-07-23 18:48:00,
2013-07-23 13:01:00,69.0,55.0,-100.00,South,183,10.0,20.0,61,-99.99,,,-99.99,965.000000,,2013-07-23 20:01:00,
2013-07-23 13:35:00,69.0,55.0,-100.00,South,183,10.0,20.0,61,-99.99,,,-99.99,965.000000,,2013-07-23 20:35:00,
2013-07-23 13:46:00,69.0,55.0,-100.00,South,183,10.0,20.0,61,-99.99,,,-99.99,965.000000,,2013-07-23 20:46:00,
2013-07-23 13:57:00,69.0,55.0,-100.00,South,183,10.0,20.0,61,-99.99,,,-99.99,965.000000,,2013-07-23 20:57:00,
2013-07-23 14:01:00,72.0,55.0,-100.00,NNE,30,10.0,21.0,55,-99.99,,,0.00,1041.000000,,2013-07-23 21:01:00,
2013-07-23 15:47:00,75.0,53.0,-100.00,NE,34,8.0,21.0,46,0.00,,,0.00,1060.000000,,2013-07-23 22:47:00,
2013-07-23 15:58:00,75.0,53.0,-100.00,NE,34,8.0,21.0,46,0.00,,,0.00,1060.000000,,2013-07-23 22:58:00,
2013-07-23 16:37:00,75.0,52.0,-100.00,ESE,103,6.0,17.0,44,0.00,,,0.00,1023.000000,,2013-07-23 23:37:00,
2013-07-23 17:01:00,80.0,55.0,-100.00,NE,46,6.0,16.0,42,-99.99,,,0.00,930.000000,,2013-07-24 00:01:00,
2013-07-23 17:34:00,80.0,55.0,-100.00,NE,46,6.0,16.0,42,-99.99,,,0.00,930.000000,,2013-07-24 00:34:00,
2013-07-23 17:50:00,80.0,55.0,-100.00,NE,46,6.0,16.0,42,-99.99,,,0.00,930.000000,,2013-07-24 00:50:00,
2013-07-23 17:56:00,80.0,55.0,-100.00,NE,46,6.0,16.0,42,-99.99,,,0.00,930.000000,,2013-07-24 00:56:00,
2013-07-23 18:01:00,78.0,55.0,-100.00,NNE,13,8.0,19.0,45,0.00,,,0.00,785.000000,,2013-07-24 01:01:00,
2013-07-23 18:34:00,78.0,55.0,-100.00,NNE,13,8.0,19.0,45,0.00,,,0.00,785.000000,,2013-07-24 01:34:00,
2013-07-23 18:45:00,78.0,55.0,-100.00,NNE,13,8.0,19.0,45,0.00,,,0.00,785.000000,,2013-07-24 01:45:00,
2013-07-23 18:58:00,78.0,55.0,-100.00,NNE,13,8.0,19.0,45,0.00,,,0.00,785.000000,,2013-07-24 01:58:00,
2013-07-23 19:01:00,77.0,56.0,-100.00,NNE,26,4.0,16.0,48,0.00,,,0.00,602.000000,,2013-07-24 02:01:00,
2013-07-23 19:39:00,77.0,56.0,-100.00,NNE,26,4.0,16.0,48,0.00,,,0.00,602.000000,,2013-07-24 02:39:00,
2013-07-23 19:56:00,77.0,56.0,-100.00,NNE,26,4.0,16.0,48,0.00,,,0.00,602.000000,,2013-07-24 02:56:00,
2013-07-23 20:01:00,73.0,58.0,-100.00,North,9,12.0,15.0,59,0.00,,,0.00,402.000000,,2013-07-24 03:01:00,
2013-07-23 20:39:00,73.0,58.0,-100.00,North,9,12.0,15.0,59,0.00,,,0.00,402.000000,,2013-07-24 03:39:00,
2013-07-23 20:46:00,73.0,58.0,-100.00,North,9,12.0,15.0,59,0.00,,,0.00,402.000000,,2013-07-24 03:46:00,
2013-07-23 20:56:00,73.0,58.0,-100.00,North,9,12.0,15.0,59,0.00,,,0.00,402.000000,,2013-07-24 03:56:00,
2013-07-23 21:01:00,69.0,59.0,-100.00,NNW,327,10.0,17.0,70,0.00,,,0.00,207.000000,,2013-07-24 04:01:00,
2013-07-23 21:32:00,69.0,59.0,-100.00,NNW,327,10.0,17.0,70,0.00,,,0.00,207.000000,,2013-07-24 04:32:00,
2013-07-23 21:43:00,69.0,59.0,-100.00,NNW,327,10.0,17.0,70,0.00,,,0.00,207.000000,,2013-07-24 04:43:00,
2013-07-23 21:52:00,69.0,59.0,-100.00,NNW,327,10.0,17.0,70,0.00,,,0.00,207.000000,,2013-07-24 04:52:00,
2013-07-23 22:01:00,66.0,50.0,-100.00,NNW,337,10.0,14.0,56,0.00,,,0.00,41.000000,,2013-07-24 05:01:00,
2013-07-23 22:33:00,66.0,50.0,-100.00,NNW,337,10.0,14.0,56,0.00,,,0.00,41.000000,,2013-07-24 05:33:00,
2013-07-23 22:43:00,66.0,50.0,-100.00,NNW,337,10.0,14.0,56,0.00,,,0.00,41.000000,,2013-07-24 05:43:00,
2013-07-23 22:52:00,66.0,50.0,-100.00,NNW,337,10.0,14.0,56,0.00,,,0.00,41.000000,,2013-07-24 05:52:00,
2013-07-23 23:01:00,66.0,47.0,-100.00,North,7,11.0,17.0,51,0.00,,,0.00,0.000000,,2013-07-24 06:01:00,
2013-07-23 23:34:00,66.0,47.0,-100.00,North,7,11.0,17.0,51,0.00,,,0.00,0.000000,,2013-07-24 06:34:00,
2013-07-23 23:43:00,66.0,47.0,-100.00,North,7,11.0,17.0,51,0.00,,,0.00,0.000000,,2013-07-24 06:43:00,
2013-07-23 23:53:00,66.0,47.0,-100.00,North,7,11.0,17.0,51,0.00,,,0.00,0.000000,,2013-07-24 06:53:00,